Time;durP1;ratioP1;P1;durP2;ratioP2;P2;SDS_P1;SDS_P2;PMS_P1;PMS_P2;Temp;Humidity;BMP_temperature;BMP_pressure;BME280_temperature;BME280_humidity;BME280_pressure;Samples;Min_cycle;Max_cycle;Signal;HPM_P1;HPM_P2
2023/10/28 00:02:23;;;;;;;5.83;0.80;;;11.80;99.90;;;;;;5046489;28;21062;-64
2023/10/28 00:04:51;;;;;;;2.90;0.70;;;11.80;99.90;;;;;;5040685;28;20471;-63
2023/10/28 00:07:18;;;;;;;4.10;0.70;;;11.80;99.90;;;;;;5070598;28;20474;-65
2023/10/28 00:09:47;;;;;;;1.97;0.70;;;11.70;99.90;;;;;;5064006;28;20473;-69
2023/10/28 00:12:15;;;;;;;1.57;0.60;;;11.70;99.90;;;;;;5050271;28;20982;-67
2023/10/28 00:14:43;;;;;;;1.90;0.63;;;11.80;99.90;;;;;;5062635;28;21038;-65
2023/10/28 00:17:10;;;;;;;1.60;0.80;;;11.70;99.90;;;;;;5068054;28;21120;-68
2023/10/28 00:19:37;;;;;;;2.83;0.80;;;11.80;99.90;;;;;;5035749;28;20942;-66
2023/10/28 00:22:05;;;;;;;24.77;2.27;;;;;;;;;;5066809;28;20581;-68
2023/10/28 00:24:33;;;;;;;2.30;0.80;;;11.80;99.90;;;;;;5046670;28;20478;-69
2023/10/28 00:27:03;;;;;;;1.70;0.90;;;11.70;99.90;;;;;;5046033;28;20494;-66
2023/10/28 00:29:31;;;;;;;1.70;0.70;;;11.90;99.90;;;;;;5027455;28;21098;-63
2023/10/28 00:31:59;;;;;;;1.90;0.80;;;11.90;99.90;;;;;;5042825;28;21033;-65
2023/10/28 00:34:27;;;;;;;2.27;0.70;;;11.70;99.90;;;;;;5046094;28;20486;-63
2023/10/28 00:36:55;;;;;;;3.00;0.53;;;11.80;99.90;;;;;;5044866;28;20512;-64
2023/10/28 00:39:23;;;;;;;1.57;0.70;;;11.90;99.90;;;;;;5048310;28;20483;-64
2023/10/28 00:41:50;;;;;;;2.20;0.80;;;11.90;99.90;;;;;;5041007;28;21004;-64
2023/10/28 00:44:20;;;;;;;5.20;0.90;;;11.90;99.90;;;;;;5047104;28;20977;-62
2023/10/28 00:46:48;;;;;;;3.83;0.90;;;11.80;99.90;;;;;;5046982;28;20853;-64
2023/10/28 00:49:16;;;;;;;3.30;0.70;;;11.80;99.90;;;;;;5047159;28;20827;-64
2023/10/28 00:51:46;;;;;;;3.70;1.33;;;11.80;99.90;;;;;;5041849;28;21214;-64
2023/10/28 00:54:13;;;;;;;1.90;0.70;;;11.90;99.90;;;;;;5048938;28;20530;-63
2023/10/28 00:56:41;;;;;;;10.03;1.73;;;12.00;99.90;;;;;;5041177;28;20871;-63
2023/10/28 00:59:09;;;;;;;1.80;1.00;;;11.90;99.90;;;;;;5048493;28;20979;-63
2023/10/28 01:01:38;;;;;;;1.60;0.90;;;12.00;99.90;;;;;;5039851;28;20483;-65
2023/10/28 01:04:15;;;;;;;6.10;1.43;;;11.90;99.90;;;;;;5044409;28;20483;-63
2023/10/28 01:06:43;;;;;;;3.20;1.50;;;11.70;99.90;;;;;;5042199;28;20886;-62
2023/10/28 01:09:10;;;;;;;1.70;1.23;;;11.70;99.90;;;;;;5035650;28;20488;-63
2023/10/28 01:11:39;;;;;;;11.60;2.20;;;11.70;99.90;;;;;;5036993;28;20472;-64
2023/10/28 01:14:07;;;;;;;3.07;1.10;;;11.70;99.90;;;;;;5032903;28;21000;-62
2023/10/28 01:16:34;;;;;;;3.07;1.47;;;;;;;;;;5057659;28;21911;-64
2023/10/28 01:19:05;;;;;;;3.53;1.57;;;11.70;99.90;;;;;;5044734;28;20471;-63
2023/10/28 01:21:34;;;;;;;3.63;1.53;;;11.70;99.90;;;;;;5040876;28;20478;-63
2023/10/28 01:24:03;;;;;;;15.37;2.30;;;11.80;99.90;;;;;;5022513;28;20482;-62
2023/10/28 01:26:31;;;;;;;6.77;1.70;;;11.80;99.90;;;;;;5038194;28;20475;-64
2023/10/28 01:29:00;;;;;;;2.47;1.10;;;11.90;99.90;;;;;;5017360;28;20931;-63
2023/10/28 01:31:28;;;;;;;2.87;1.30;;;11.90;99.90;;;;;;5048553;28;20479;-62
2023/10/28 01:33:56;;;;;;;2.40;0.87;;;11.80;99.90;;;;;;5035410;28;20471;-64
2023/10/28 01:36:25;;;;;;;2.90;1.40;;;11.80;99.90;;;;;;5044504;28;20463;-63
2023/10/28 01:38:55;;;;;;;2.97;1.20;;;11.80;99.90;;;;;;5030425;28;20509;-63
2023/10/28 01:41:23;;;;;;;2.50;0.70;;;11.80;99.90;;;;;;5044187;28;20924;-63
2023/10/28 01:43:51;;;;;;;4.53;1.30;;;11.80;99.90;;;;;;5045412;28;20747;-63
2023/10/28 01:46:19;;;;;;;1.80;0.90;;;11.60;99.90;;;;;;5065818;28;21020;-63
2023/10/28 01:48:47;;;;;;;4.70;0.87;;;11.60;99.90;;;;;;5067368;28;20551;-68
2023/10/28 01:51:22;;;;;;;10.13;2.00;;;;;;;;;;5046322;28;20504;-67
2023/10/28 01:53:50;;;;;;;3.40;1.43;;;11.60;99.90;;;;;;5043235;28;20476;-68
2023/10/28 01:56:20;;;;;;;4.03;1.30;;;11.60;99.90;;;;;;5046742;28;20507;-66
2023/10/28 01:58:48;;;;;;;6.47;1.33;;;11.70;99.90;;;;;;5049924;28;20474;-67
2023/10/28 02:01:16;;;;;;;6.23;1.63;;;11.60;99.90;;;;;;5061274;28;20475;-68
2023/10/28 02:03:44;;;;;;;6.57;2.50;;;11.60;99.90;;;;;;5055324;28;20869;-70
2023/10/28 02:06:12;;;;;;;3.90;1.50;;;11.70;99.90;;;;;;5045474;28;21237;-67
2023/10/28 02:08:40;;;;;;;3.90;1.03;;;11.70;99.90;;;;;;5064674;28;20837;-65
2023/10/28 02:11:08;;;;;;;6.67;2.03;;;11.50;99.90;;;;;;5050915;28;20487;-69
2023/10/28 02:13:39;;;;;;;9.03;2.67;;;11.60;99.90;;;;;;5055963;28;20597;-65
2023/10/28 02:16:07;;;;;;;10.23;2.40;;;;;;;;;;5053425;28;20479;-68
2023/10/28 02:18:35;;;;;;;4.17;1.80;;;11.50;99.90;;;;;;5067528;28;20477;-66
2023/10/28 02:21:04;;;;;;;4.63;1.80;;;11.50;99.90;;;;;;5076980;28;20530;-68
2023/10/28 02:23:32;;;;;;;3.47;1.70;;;11.40;99.90;;;;;;5050779;28;20497;-66
2023/10/28 02:26:00;;;;;;;19.60;2.60;;;11.50;99.90;;;;;;5070388;28;20479;-67
2023/10/28 02:28:29;;;;;;;4.87;1.60;;;11.50;99.90;;;;;;5056312;28;21180;-66
2023/10/28 02:30:57;;;;;;;5.60;1.40;;;11.50;99.90;;;;;;5058483;28;20476;-67
2023/10/28 02:33:24;;;;;;;3.03;1.10;;;11.50;99.90;;;;;;5066861;28;20972;-68
2023/10/28 02:35:50;;;;;;;6.23;1.73;;;11.50;99.90;;;;;;5057856;28;20610;-67
2023/10/28 02:38:17;;;;;;;5.27;1.80;;;11.50;99.90;;;;;;5033804;28;20591;-64
2023/10/28 02:40:48;;;;;;;5.80;1.70;;;11.60;99.90;;;;;;5043539;28;20510;-63
2023/10/28 02:43:14;;;;;;;2.77;1.90;;;11.60;99.90;;;;;;5071927;28;20486;-63
2023/10/28 02:45:41;;;;;;;6.00;1.47;;;11.40;99.90;;;;;;5055471;28;20486;-62
2023/10/28 02:48:09;;;;;;;10.13;2.50;;;11.50;99.90;;;;;;5072481;28;20964;-64
2023/10/28 02:50:37;;;;;;;3.10;1.87;;;11.60;99.90;;;;;;5048620;28;20534;-63
2023/10/28 02:53:04;;;;;;;5.00;2.13;;;11.40;99.90;;;;;;5028235;28;20538;-62
2023/10/28 02:55:30;;;;;;;10.77;2.40;;;11.60;99.90;;;;;;5049763;28;20479;-61
2023/10/28 02:57:57;;;;;;;8.63;2.13;;;11.60;99.90;;;;;;5064446;28;20576;-64
2023/10/28 03:00:24;;;;;;;17.50;3.20;;;11.50;99.90;;;;;;5069602;28;20483;-64
2023/10/28 03:02:52;;;;;;;5.63;1.93;;;11.50;99.90;;;;;;5055206;28;20502;-61
2023/10/28 03:05:22;;;;;;;4.30;1.93;;;11.50;99.90;;;;;;5076360;28;20477;-62
2023/10/28 03:07:49;;;;;;;4.60;2.53;;;11.40;99.90;;;;;;5066740;28;20925;-62
2023/10/28 03:10:16;;;;;;;11.93;2.70;;;11.50;99.90;;;;;;5072374;28;20568;-65
2023/10/28 03:12:43;;;;;;;9.13;3.73;;;11.50;99.90;;;;;;5067412;28;20845;-67
2023/10/28 03:15:10;;;;;;;13.50;2.60;;;11.50;99.90;;;;;;5072280;28;20564;-67
2023/10/28 03:17:38;;;;;;;2.30;1.77;;;11.60;99.90;;;;;;5037835;28;20494;-67
2023/10/28 03:20:08;;;;;;;6.40;1.50;;;11.70;99.90;;;;;;5057625;28;20570;-66
2023/10/28 03:22:37;;;;;;;4.83;1.93;;;11.50;99.90;;;;;;5059412;28;20819;-65
2023/10/28 03:25:04;;;;;;;4.47;1.60;;;11.60;99.90;;;;;;5059941;28;20475;-65
2023/10/28 03:27:31;;;;;;;2.30;1.80;;;11.60;99.90;;;;;;5054217;28;20578;-65
2023/10/28 03:29:58;;;;;;;15.97;2.73;;;11.60;99.90;;;;;;5055669;28;20479;-66
2023/10/28 03:32:25;;;;;;;8.30;1.80;;;11.60;99.90;;;;;;5061957;28;20489;-66
2023/10/28 03:34:52;;;;;;;9.33;3.03;;;11.60;99.90;;;;;;5068025;28;20856;-66
2023/10/28 03:37:19;;;;;;;2.90;1.33;;;11.50;99.90;;;;;;5057122;28;21016;-66
2023/10/28 03:39:47;;;;;;;8.67;2.23;;;11.60;99.90;;;;;;5055987;28;20475;-64
2023/10/28 03:42:14;;;;;;;8.70;2.73;;;11.60;99.90;;;;;;5071396;28;20934;-65
2023/10/28 03:44:41;;;;;;;3.27;1.73;;;;;;;;;;5055730;28;20494;-67
2023/10/28 03:47:08;;;;;;;5.83;2.27;;;11.50;99.90;;;;;;5059900;28;21052;-65
2023/10/28 03:49:36;;;;;;;6.50;1.30;;;11.60;99.90;;;;;;5054311;28;20481;-64
2023/10/28 03:52:03;;;;;;;4.63;1.90;;;11.70;99.90;;;;;;5057863;28;20475;-67
2023/10/28 03:54:30;;;;;;;4.30;2.10;;;11.70;99.90;;;;;;5055625;28;20962;-65
2023/10/28 03:56:59;;;;;;;11.97;2.33;;;11.70;99.90;;;;;;5078551;28;21212;-65
2023/10/28 03:59:25;;;;;;;5.13;2.50;;;11.50;99.90;;;;;;5081205;28;20859;-67
2023/10/28 04:01:52;;;;;;;2.13;1.40;;;11.60;99.90;;;;;;5064438;28;20542;-65
2023/10/28 04:04:19;;;;;;;11.63;1.90;;;11.60;99.90;;;;;;5046868;28;20479;-68
2023/10/28 04:06:46;;;;;;;2.67;1.60;;;11.50;99.90;;;;;;5069791;28;20487;-66
2023/10/28 04:09:14;;;;;;;16.47;3.30;;;;;;;;;;5071698;28;20748;-66
2023/10/28 04:11:41;;;;;;;3.60;2.50;;;11.70;99.90;;;;;;5067937;28;20486;-66
2023/10/28 04:14:09;;;;;;;6.27;3.10;;;11.60;99.90;;;;;;5056374;28;21463;-67
2023/10/28 04:16:36;;;;;;;13.60;2.60;;;11.60;99.90;;;;;;5046132;28;20566;-66
2023/10/28 04:19:03;;;;;;;2.87;1.80;;;11.70;99.90;;;;;;5055097;28;20473;-65
2023/10/28 04:21:30;;;;;;;15.20;3.10;;;11.60;99.90;;;;;;5073891;28;21157;-67
2023/10/28 04:23:57;;;;;;;8.43;1.90;;;11.70;99.90;;;;;;5062706;28;20574;-68
2023/10/28 04:26:24;;;;;;;6.93;1.70;;;11.70;99.90;;;;;;5052121;28;20827;-66
2023/10/28 04:28:51;;;;;;;6.37;2.33;;;11.70;99.90;;;;;;5055566;28;20491;-69
2023/10/28 04:31:19;;;;;;;13.13;2.40;;;11.80;99.90;;;;;;5061032;28;20473;-66
2023/10/28 04:33:46;;;;;;;7.87;2.13;;;11.80;99.90;;;;;;5069979;28;20574;-66
2023/10/28 04:36:13;;;;;;;7.97;1.40;;;11.80;99.90;;;;;;5078375;28;20476;-67
2023/10/28 04:38:40;;;;;;;13.83;2.90;;;11.90;99.90;;;;;;5049696;28;20554;-65
2023/10/28 04:41:08;;;;;;;4.70;2.70;;;11.90;99.90;;;;;;5083160;28;20561;-66
2023/10/28 04:43:34;;;;;;;17.47;2.97;;;11.80;99.90;;;;;;5055270;28;20487;-66
2023/10/28 04:46:01;;;;;;;3.57;1.90;;;11.70;99.90;;;;;;5059732;28;20581;-66
2023/10/28 04:48:29;;;;;;;8.93;2.43;;;11.80;99.90;;;;;;5028457;28;20485;-67
2023/10/28 04:50:56;;;;;;;17.87;2.30;;;11.90;99.90;;;;;;5066579;28;20489;-67
2023/10/28 04:53:23;;;;;;;4.67;1.80;;;11.80;99.90;;;;;;5062894;28;20565;-66
2023/10/28 04:55:50;;;;;;;4.27;1.37;;;11.70;99.90;;;;;;5047950;28;20467;-68
2023/10/28 04:58:17;;;;;;;2.53;1.40;;;;;;;;;;5080803;28;20661;-63
2023/10/28 05:00:45;;;;;;;1.70;0.80;;;11.70;99.90;;;;;;5073725;28;20540;-66
2023/10/28 05:03:12;;;;;;;6.60;2.10;;;11.80;99.90;;;;;;5062891;28;20614;-67
2023/10/28 05:05:40;;;;;;;2.90;1.30;;;11.80;99.90;;;;;;5064918;28;20489;-66
2023/10/28 05:08:07;;;;;;;3.63;2.07;;;11.80;99.90;;;;;;5079345;28;20506;-69
2023/10/28 05:10:34;;;;;;;3.97;1.77;;;11.80;99.90;;;;;;5061038;28;20595;-67
2023/10/28 05:13:01;;;;;;;6.27;1.77;;;11.80;99.90;;;;;;5073085;28;20942;-67
2023/10/28 05:15:29;;;;;;;3.20;1.40;;;11.70;99.90;;;;;;5056771;28;21086;-69
2023/10/28 05:17:55;;;;;;;5.93;2.03;;;11.70;99.90;;;;;;5055897;28;20474;-67
2023/10/28 05:20:22;;;;;;;5.43;1.33;;;11.70;99.90;;;;;;5043252;28;20889;-67
2023/10/28 05:22:50;;;;;;;6.93;2.10;;;11.70;99.90;;;;;;5044645;28;20580;-67
2023/10/28 05:25:18;;;;;;;9.40;1.73;;;11.80;99.90;;;;;;5081574;28;20955;-64
2023/10/28 05:27:45;;;;;;;3.60;1.60;;;11.80;99.90;;;;;;5030631;28;20487;-66
2023/10/28 05:30:13;;;;;;;3.70;1.50;;;11.90;99.90;;;;;;5058734;28;20477;-65
2023/10/28 05:32:41;;;;;;;18.00;2.67;;;11.80;99.90;;;;;;5051591;28;21100;-67
2023/10/28 05:35:10;;;;;;;13.30;2.80;;;11.80;99.90;;;;;;5062555;28;21269;-67
2023/10/28 05:37:37;;;;;;;3.80;1.70;;;11.80;99.90;;;;;;5082229;28;20520;-67
2023/10/28 05:40:10;;;;;;;6.07;1.50;;;11.70;99.90;;;;;;5072790;28;20487;-66
2023/10/28 05:42:36;;;;;;;2.00;1.10;;;11.80;99.90;;;;;;5056568;28;20479;-65
2023/10/28 05:45:04;;;;;;;3.63;1.07;;;11.90;99.90;;;;;;5058390;28;20545;-65
2023/10/28 05:47:30;;;;;;;3.27;1.33;;;11.90;99.90;;;;;;5057058;28;20581;-65
2023/10/28 05:49:59;;;;;;;3.10;1.43;;;11.90;99.90;;;;;;5054675;28;20918;-66
2023/10/28 05:52:26;;;;;;;22.57;2.87;;;11.70;99.90;;;;;;5056670;28;20965;-65
2023/10/28 05:54:52;;;;;;;6.30;1.73;;;11.80;99.90;;;;;;5056015;28;20485;-66
2023/10/28 05:57:20;;;;;;;7.33;1.47;;;11.90;99.90;;;;;;5059832;28;21189;-67
2023/10/28 05:59:48;;;;;;;10.57;1.60;;;11.80;99.90;;;;;;5068341;28;20572;-66
2023/10/28 06:02:15;;;;;;;7.50;2.10;;;11.80;99.90;;;;;;5066733;28;20978;-68
2023/10/28 06:04:42;;;;;;;9.43;1.87;;;11.60;99.90;;;;;;5075374;28;20482;-69
2023/10/28 06:07:09;;;;;;;10.10;2.63;;;11.60;99.90;;;;;;5078084;28;20576;-68
2023/10/28 06:09:36;;;;;;;3.70;1.63;;;11.60;99.90;;;;;;5051823;28;20579;-65
2023/10/28 06:12:03;;;;;;;4.43;1.47;;;11.60;99.90;;;;;;5073348;28;20465;-63
2023/10/28 06:14:31;;;;;;;19.63;2.63;;;11.60;99.90;;;;;;5060606;28;20559;-65
2023/10/28 06:16:58;;;;;;;4.17;1.60;;;11.60;99.90;;;;;;5081833;28;21186;-63
2023/10/28 06:19:24;;;;;;;3.97;2.10;;;11.60;99.90;;;;;;5069218;28;20928;-64
2023/10/28 06:21:52;;;;;;;7.97;2.10;;;11.40;99.90;;;;;;5063870;28;20457;-65
2023/10/28 06:24:19;;;;;;;6.83;1.67;;;11.50;99.90;;;;;;5083280;28;20568;-63
2023/10/28 06:26:46;;;;;;;6.47;1.97;;;11.40;99.90;;;;;;5060325;28;20489;-63
2023/10/28 06:29:13;;;;;;;3.77;1.37;;;11.50;99.90;;;;;;5058174;28;20470;-64
2023/10/28 06:31:43;;;;;;;12.90;2.77;;;11.50;99.90;;;;;;5053881;28;20471;-64
2023/10/28 06:34:11;;;;;;;15.30;2.33;;;;;;;;;;5076848;28;20560;-65
2023/10/28 06:36:40;;;;;;;4.57;1.47;;;11.60;99.90;;;;;;5059490;28;20482;-66
2023/10/28 06:39:08;;;;;;;6.50;2.37;;;11.60;99.90;;;;;;5059381;28;20528;-66
2023/10/28 06:41:35;;;;;;;5.70;1.70;;;11.50;99.90;;;;;;5056720;28;20482;-64
2023/10/28 06:44:05;;;;;;;3.40;1.30;;;11.40;99.90;;;;;;5058000;28;20510;-63
2023/10/28 06:46:32;;;;;;;4.90;1.30;;;11.40;99.90;;;;;;5060256;28;20675;-66
2023/10/28 06:49:01;;;;;;;12.13;2.87;;;11.50;99.90;;;;;;5048696;28;20586;-64
2023/10/28 06:51:28;;;;;;;3.27;1.50;;;11.50;99.90;;;;;;5056481;28;20554;-64
2023/10/28 06:53:54;;;;;;;5.93;2.20;;;11.50;99.90;;;;;;5053908;28;20482;-63
2023/10/28 06:56:22;;;;;;;3.90;1.20;;;;;;;;;;5050280;28;20485;-63
2023/10/28 06:58:48;;;;;;;6.33;1.40;;;11.60;99.90;;;;;;5084473;28;20550;-62
2023/10/28 07:01:15;;;;;;;20.87;2.60;;;11.60;99.90;;;;;;5056370;28;20670;-63
2023/10/28 07:03:42;;;;;;;5.00;3.07;;;11.70;99.90;;;;;;5056603;28;21077;-63
2023/10/28 07:06:14;;;;;;;6.90;1.97;;;11.70;99.90;;;;;;5057183;28;20574;-63
2023/10/28 07:08:41;;;;;;;4.67;2.23;;;11.70;99.90;;;;;;5031075;28;20475;-64
2023/10/28 07:11:07;;;;;;;2.83;1.67;;;11.70;99.90;;;;;;5047850;28;20489;-63
2023/10/28 07:13:34;;;;;;;2.83;1.40;;;11.70;99.90;;;;;;5062587;28;20546;-64
2023/10/28 07:16:02;;;;;;;11.30;1.60;;;11.60;99.90;;;;;;5064398;28;20991;-64
2023/10/28 07:18:29;;;;;;;11.97;2.53;;;11.70;99.90;;;;;;5068139;28;20996;-69
2023/10/28 07:20:56;;;;;;;4.90;1.50;;;11.70;99.90;;;;;;5068155;28;21394;-68
2023/10/28 07:23:26;;;;;;;10.27;2.10;;;11.80;99.90;;;;;;5060711;28;20488;-67
2023/10/28 07:25:53;;;;;;;4.33;1.97;;;11.90;99.90;;;;;;5053092;28;20483;-67
2023/10/28 07:28:20;;;;;;;9.23;1.33;;;11.90;99.90;;;;;;5061668;28;20557;-63
2023/10/28 07:30:50;;;;;;;5.93;1.50;;;11.90;99.90;;;;;;5060267;28;20475;-67
2023/10/28 07:33:18;;;;;;;3.93;1.63;;;12.00;99.90;;;;;;5057660;28;20814;-66
2023/10/28 07:35:45;;;;;;;16.93;3.20;;;11.90;99.90;;;;;;5048572;28;20558;-69
2023/10/28 07:38:13;;;;;;;6.40;2.70;;;12.00;99.90;;;;;;5076992;28;21003;-69
2023/10/28 07:40:42;;;;;;;10.23;1.43;;;12.00;99.90;;;;;;5061717;28;20604;-65
2023/10/28 07:43:11;;;;;;;5.00;1.23;;;12.00;99.90;;;;;;5062719;28;20558;-67
2023/10/28 07:45:38;;;;;;;6.80;3.30;;;12.00;99.90;;;;;;5068623;28;20506;-66
2023/10/28 07:48:06;;;;;;;3.53;1.57;;;12.00;99.90;;;;;;5039700;28;21631;-67
2023/10/28 07:50:33;;;;;;;5.93;1.80;;;12.10;99.90;;;;;;5077249;28;20496;-64
2023/10/28 07:53:00;;;;;;;3.20;0.83;;;12.10;99.90;;;;;;5075313;28;20477;-64
2023/10/28 07:55:28;;;;;;;3.13;1.80;;;12.20;99.90;;;;;;5052617;28;20471;-64
2023/10/28 07:57:56;;;;;;;2.57;1.17;;;12.10;99.90;;;;;;5058570;28;20487;-62
2023/10/28 08:00:23;;;;;;;9.33;1.93;;;12.20;99.90;;;;;;5059174;28;20495;-63
2023/10/28 08:02:51;;;;;;;10.80;1.67;;;12.30;99.90;;;;;;5071714;28;20463;-62
2023/10/28 08:05:17;;;;;;;11.80;2.50;;;12.40;99.90;;;;;;5076100;28;20942;-62
2023/10/28 08:07:44;;;;;;;2.87;1.70;;;12.30;99.90;;;;;;5059520;28;20558;-62
2023/10/28 08:10:11;;;;;;;23.40;3.47;;;12.30;99.90;;;;;;5057985;28;20483;-63
2023/10/28 08:12:39;;;;;;;2.30;1.00;;;12.30;99.90;;;;;;5060902;28;20937;-63
2023/10/28 08:15:09;;;;;;;4.43;2.27;;;12.20;99.90;;;;;;5068675;28;20470;-64
2023/10/28 08:17:35;;;;;;;5.03;1.63;;;12.30;99.90;;;;;;5057356;28;20514;-64
2023/10/28 08:20:03;;;;;;;9.63;1.83;;;;;;;;;;5065766;27;20483;-62
2023/10/28 08:22:30;;;;;;;4.10;1.63;;;12.60;99.90;;;;;;5075229;28;20473;-64
2023/10/28 08:24:57;;;;;;;7.93;2.37;;;12.50;99.90;;;;;;5056574;28;21051;-62
2023/10/28 08:27:24;;;;;;;6.50;2.53;;;12.70;99.90;;;;;;5057490;28;20546;-62
2023/10/28 08:29:51;;;;;;;6.43;2.40;;;12.70;99.90;;;;;;5070804;28;21002;-62
2023/10/28 08:32:19;;;;;;;7.20;1.40;;;12.70;99.90;;;;;;5055743;28;20489;-61
2023/10/28 08:34:46;;;;;;;3.60;1.60;;;12.80;99.90;;;;;;5068588;28;20568;-64
2023/10/28 08:37:13;;;;;;;3.00;1.17;;;12.80;99.90;;;;;;5058429;28;21128;-63
2023/10/28 08:39:42;;;;;;;18.60;3.27;;;12.80;99.90;;;;;;5070961;28;20477;-63
2023/10/28 08:42:10;;;;;;;11.17;1.90;;;12.80;99.90;;;;;;5060684;28;20533;-64
2023/10/28 08:44:38;;;;;;;19.93;3.00;;;12.80;99.90;;;;;;5052570;28;21048;-63
2023/10/28 08:47:07;;;;;;;11.70;2.17;;;12.80;99.90;;;;;;5023214;28;21050;-63
2023/10/28 08:49:38;;;;;;;12.97;3.00;;;12.90;99.90;;;;;;5056581;28;20920;-64
2023/10/28 08:52:07;;;;;;;12.13;1.90;;;13.00;99.90;;;;;;5061864;28;20921;-61
2023/10/28 08:54:38;;;;;;;7.43;1.60;;;13.10;99.90;;;;;;5058352;28;20511;-63
2023/10/28 08:57:05;;;;;;;4.03;1.20;;;13.10;99.90;;;;;;5062368;28;20489;-63
2023/10/28 08:59:32;;;;;;;3.50;1.43;;;13.20;99.90;;;;;;5061592;28;20486;-63
2023/10/28 09:02:00;;;;;;;9.10;1.87;;;13.40;99.90;;;;;;5057261;28;20471;-62
2023/10/28 09:04:27;;;;;;;3.97;1.63;;;13.30;99.90;;;;;;5057856;28;20898;-64
2023/10/28 09:06:59;;;;;;;8.00;1.70;;;13.50;99.90;;;;;;5057682;28;20482;-62
2023/10/28 09:09:28;;;;;;;6.70;2.63;;;13.50;99.90;;;;;;5058930;28;20470;-62
2023/10/28 09:11:57;;;;;;;26.07;2.73;;;13.60;99.90;;;;;;5049026;28;20635;-61
2023/10/28 09:14:23;;;;;;;3.43;1.67;;;13.40;99.90;;;;;;5050333;28;20475;-62
2023/10/28 09:16:50;;;;;;;11.50;2.40;;;13.40;99.90;;;;;;5080373;28;20494;-64
2023/10/28 09:19:21;;;;;;;18.23;2.17;;;13.50;99.90;;;;;;5052036;28;20575;-63
2023/10/28 09:21:48;;;;;;;5.53;1.90;;;13.70;99.90;;;;;;5075866;28;20562;-62
2023/10/28 09:24:17;;;;;;;7.10;1.80;;;13.70;99.90;;;;;;5037595;28;20554;-63
2023/10/28 09:26:46;;;;;;;6.80;2.00;;;13.90;99.90;;;;;;5056085;28;20487;-64
2023/10/28 09:29:24;;;;;;;9.17;3.37;;;13.90;99.90;;;;;;5075775;28;20932;-65
2023/10/28 09:31:51;;;;;;;7.43;1.83;;;13.90;99.90;;;;;;5054758;28;20542;-65
2023/10/28 09:34:17;;;;;;;4.43;1.37;;;14.30;99.90;;;;;;5056519;28;20577;-63
2023/10/28 09:36:44;;;;;;;4.57;2.40;;;14.20;99.90;;;;;;5063590;28;20558;-64
2023/10/28 09:39:14;;;;;;;10.03;2.47;;;14.20;99.90;;;;;;5071185;28;20913;-62
2023/10/28 09:41:42;;;;;;;10.50;2.40;;;14.10;99.90;;;;;;5069455;28;20488;-64
2023/10/28 09:44:11;;;;;;;10.50;2.50;;;14.10;99.90;;;;;;5086749;28;20558;-64
2023/10/28 09:46:40;;;;;;;12.50;2.70;;;14.00;99.90;;;;;;5058943;28;20687;-64
2023/10/28 09:49:09;;;;;;;8.73;1.93;;;14.00;99.90;;;;;;5065566;28;20493;-66
2023/10/28 09:51:40;;;;;;;2.53;1.50;;;14.00;99.90;;;;;;5062122;28;20478;-66
2023/10/28 09:54:11;;;;;;;5.30;2.00;;;;;;;;;;5063149;28;20458;-69
2023/10/28 09:56:41;;;;;;;5.97;2.13;;;13.90;99.90;;;;;;5062555;28;20549;-66
2023/10/28 09:59:18;;;;;;;5.40;1.43;;;14.00;99.90;;;;;;5060387;28;20474;-67
2023/10/28 10:01:55;;;;;;;7.73;1.43;;;14.10;99.90;;;;;;5057900;28;21129;-67
2023/10/28 10:04:31;;;;;;;2.83;1.07;;;14.00;99.90;;;;;;5028293;28;20480;-69
2023/10/28 10:06:58;;;;;;;4.90;1.47;;;14.10;99.90;;;;;;5049620;28;20487;-70
2023/10/28 10:09:32;;;;;;;10.50;2.13;;;14.20;99.90;;;;;;5089685;28;20564;-63
2023/10/28 10:11:59;;;;;;;16.10;2.90;;;14.10;99.90;;;;;;5034697;28;20478;-63
2023/10/28 10:14:31;;;;;;;18.53;2.00;;;14.20;99.90;;;;;;5082600;28;20482;-64
2023/10/28 10:17:03;;;;;;;9.10;2.50;;;14.10;99.90;;;;;;5082690;28;20479;-62
2023/10/28 10:19:33;;;;;;;5.57;1.70;;;14.00;99.90;;;;;;5086284;28;20514;-63
2023/10/28 10:22:03;;;;;;;5.00;1.70;;;14.00;99.90;;;;;;5067396;28;20870;-64
2023/10/28 10:24:30;;;;;;;5.63;1.87;;;13.90;99.90;;;;;;5062675;28;20474;-65
2023/10/28 10:26:59;;;;;;;7.53;1.40;;;13.90;99.90;;;;;;5085137;28;20481;-64
2023/10/28 10:29:29;;;;;;;9.90;1.67;;;13.90;99.90;;;;;;5065461;28;20532;-62
2023/10/28 10:31:56;;;;;;;5.97;1.90;;;13.90;99.90;;;;;;5074853;28;20690;-62
2023/10/28 10:34:34;;;;;;;5.10;2.23;;;13.90;99.90;;;;;;5073736;28;20552;-63
2023/10/28 10:37:01;;;;;;;7.50;2.33;;;14.00;99.90;;;;;;5064115;28;21262;-64
2023/10/28 10:39:28;;;;;;;10.80;1.80;;;13.90;99.90;;;;;;5071829;28;20964;-65
2023/10/28 10:41:56;;;;;;;8.13;2.50;;;13.90;99.90;;;;;;5050795;28;20487;-63
2023/10/28 10:44:24;;;;;;;3.73;1.73;;;13.90;99.90;;;;;;5065694;28;20485;-64
2023/10/28 10:46:56;;;;;;;14.00;2.60;;;13.80;99.90;;;;;;5052572;28;21009;-61
2023/10/28 10:49:23;;;;;;;8.00;2.10;;;13.80;99.90;;;;;;5056515;28;20485;-66
2023/10/28 10:51:50;;;;;;;4.03;1.70;;;13.80;99.90;;;;;;5079110;28;20533;-62
2023/10/28 10:54:18;;;;;;;3.90;1.90;;;13.90;99.90;;;;;;5060879;28;21002;-64
2023/10/28 10:56:44;;;;;;;14.80;2.50;;;13.80;99.90;;;;;;5060208;28;21036;-64
2023/10/28 10:59:11;;;;;;;3.57;1.73;;;13.70;99.90;;;;;;5056841;28;20510;-67
2023/10/28 11:01:39;;;;;;;4.90;1.40;;;13.80;99.90;;;;;;5059749;28;20493;-68
2023/10/28 11:04:08;;;;;;;11.20;1.53;;;13.70;99.90;;;;;;5078104;28;20548;-68
2023/10/28 11:06:35;;;;;;;5.40;0.90;;;13.50;99.90;;;;;;5054589;28;20487;-66
2023/10/28 11:09:04;;;;;;;20.03;2.80;;;13.50;99.90;;;;;;5086078;28;20582;-67
2023/10/28 11:11:30;;;;;;;3.80;1.90;;;13.40;99.90;;;;;;5063567;28;20474;-68
2023/10/28 11:13:57;;;;;;;7.53;2.70;;;13.40;99.90;;;;;;5061532;28;21072;-68
2023/10/28 11:16:28;;;;;;;10.10;1.70;;;13.20;99.90;;;;;;5051741;28;20482;-67
2023/10/28 11:18:55;;;;;;;8.10;2.00;;;13.00;99.90;;;;;;5053293;28;21231;-67
2023/10/28 11:21:24;;;;;;;5.67;2.47;;;13.10;99.90;;;;;;5065278;28;20489;-68
2023/10/28 11:23:52;;;;;;;14.37;3.53;;;12.90;99.90;;;;;;5063041;28;20566;-69
2023/10/28 11:26:19;;;;;;;3.97;1.50;;;12.90;99.90;;;;;;5067193;28;20530;-68
2023/10/28 11:28:46;;;;;;;6.23;2.30;;;12.80;99.90;;;;;;5067947;28;20486;-68
2023/10/28 11:31:13;;;;;;;7.47;1.87;;;12.80;99.90;;;;;;5059891;28;20580;-67
2023/10/28 11:33:44;;;;;;;8.27;2.10;;;12.80;99.90;;;;;;5059085;28;21052;-68
2023/10/28 11:36:11;;;;;;;12.40;1.80;;;12.70;99.90;;;;;;5045820;28;20546;-68
2023/10/28 11:38:39;;;;;;;17.87;2.83;;;12.70;99.90;;;;;;5057108;28;20494;-66
2023/10/28 11:41:07;;;;;;;5.80;2.67;;;12.70;99.90;;;;;;5045577;28;20605;-69
2023/10/28 11:43:35;;;;;;;19.63;2.87;;;12.60;99.90;;;;;;5057047;28;20544;-67
2023/10/28 11:46:02;;;;;;;6.07;2.00;;;12.60;99.90;;;;;;5040652;28;21005;-67
2023/10/28 11:48:29;;;;;;;11.40;2.00;;;12.70;99.90;;;;;;5052364;28;20554;-67
2023/10/28 11:50:55;;;;;;;7.13;2.13;;;12.70;99.90;;;;;;5054042;28;20546;-67
2023/10/28 11:53:25;;;;;;;13.83;2.43;;;12.60;99.90;;;;;;5029676;28;20585;-67
2023/10/28 11:55:54;;;;;;;6.03;1.73;;;12.60;99.90;;;;;;5054629;28;20932;-70
2023/10/28 11:58:23;;;;;;;7.20;1.50;;;12.60;99.90;;;;;;5066063;28;20942;-68
2023/10/28 12:00:53;;;;;;;4.57;1.47;;;12.60;99.90;;;;;;5040720;28;20914;-67
2023/10/28 12:03:19;;;;;;;2.60;1.30;;;12.50;99.90;;;;;;5016359;28;20547;-66
2023/10/28 12:05:46;;;;;;;2.47;1.13;;;12.60;99.90;;;;;;5054002;28;20529;-66
2023/10/28 12:08:13;;;;;;;8.17;2.13;;;12.60;99.90;;;;;;5008991;28;20602;-68
2023/10/28 12:10:43;;;;;;;4.40;1.40;;;12.50;99.90;;;;;;5058684;28;20469;-64
2023/10/28 12:13:11;;;;;;;6.67;2.00;;;12.60;99.90;;;;;;5066488;28;20597;-64
2023/10/28 12:15:39;;;;;;;5.83;2.30;;;;;;;;;;5071395;28;20557;-64
2023/10/28 12:18:06;;;;;;;22.57;2.60;;;12.80;99.90;;;;;;5046900;28;20479;-64
2023/10/28 12:20:32;;;;;;;2.93;1.10;;;12.70;99.90;;;;;;5075725;28;20568;-65
2023/10/28 12:23:00;;;;;;;2.37;1.00;;;12.60;99.90;;;;;;5059869;28;20466;-65
2023/10/28 12:25:27;;;;;;;5.30;2.30;;;12.60;99.90;;;;;;5048225;28;20506;-64
2023/10/28 12:27:53;;;;;;;4.67;1.00;;;12.60;99.90;;;;;;5055125;28;20566;-64
2023/10/28 12:30:22;;;;;;;3.80;1.47;;;12.50;99.90;;;;;;5051674;28;20524;-68
2023/10/28 12:32:58;;;;;;;2.30;1.40;;;12.40;99.90;;;;;;5054716;28;21030;-67
2023/10/28 12:35:25;;;;;;;3.20;1.40;;;12.60;99.90;;;;;;5050088;28;20462;-67
2023/10/28 12:37:52;;;;;;;3.30;1.23;;;12.50;99.90;;;;;;5060678;28;20482;-66
2023/10/28 12:40:19;;;;;;;2.90;1.50;;;12.60;99.90;;;;;;5054374;28;21040;-68
2023/10/28 12:42:48;;;;;;;3.23;1.50;;;12.60;99.90;;;;;;5056807;28;20562;-65
2023/10/28 12:45:14;;;;;;;2.80;1.30;;;12.70;99.90;;;;;;5076260;28;21237;-66
2023/10/28 12:47:43;;;;;;;10.80;2.43;;;12.50;99.90;;;;;;5050382;28;20470;-67
2023/10/28 12:50:14;;;;;;;15.63;2.30;;;12.60;99.90;;;;;;5069200;28;20461;-67
2023/10/28 12:52:41;;;;;;;21.10;2.27;;;12.60;99.90;;;;;;5052548;28;20531;-66